Time;durP1;ratioP1;P1;durP2;ratioP2;P2;SDS_P1;SDS_P2;PMS_P1;PMS_P2;Temp;Humidity;BMP_temperature;BMP_pressure;BME280_temperature;BME280_humidity;BME280_pressure;Samples;Min_cycle;Max_cycle;Signal;HPM_P1;HPM_P2
2022/02/08 00:02:17;;;;;;;5.40;2.50;;;;;;;2.65;77.32;99833.06;208012;1313;140970;-69
2022/02/08 00:07:27;;;;;;;9.10;3.50;;;;;;;2.66;77.37;99840.52;207421;1315;139869;-72
2022/02/08 00:12:30;;;;;;;13.80;6.30;;;;;;;2.70;77.08;99853.23;208129;1315;139827;-71
2022/02/08 00:17:49;;;;;;;8.30;4.50;;;;;;;2.73;77.21;99855.73;207890;1315;139567;-77
2022/02/08 00:22:52;;;;;;;14.30;3.80;;;;;;;2.74;77.30;99866.84;207625;1314;139305;-75
2022/02/08 00:28:08;;;;;;;7.70;3.40;;;;;;;2.77;77.44;99875.58;207728;1315;140103;-75
2022/02/08 00:33:22;;;;;;;8.50;4.30;;;;;;;2.79;77.29;99878.38;207332;1315;139924;-78
2022/02/08 00:38:25;;;;;;;11.70;3.80;;;;;;;2.76;77.09;99882.77;208773;1315;139638;-72
2022/02/08 00:43:34;;;;;;;20.70;4.70;;;;;;;2.74;77.04;99889.60;208237;1314;140570;-78
2022/02/08 00:48:43;;;;;;;6.90;3.80;;;;;;;2.76;77.01;99890.23;208921;1315;150915;-80
2022/02/08 00:53:49;;;;;;;14.70;3.50;;;;;;;2.72;77.16;99892.16;209378;1314;139941;-81
2022/02/08 00:58:52;;;;;;;16.00;6.30;;;;;;;2.71;77.07;99902.96;209298;1316;141473;-81
2022/02/08 01:03:56;;;;;;;11.20;3.20;;;;;;;2.74;77.20;99913.16;207299;1315;140511;-76
2022/02/08 01:09:11;;;;;;;19.30;5.30;;;;;;;2.71;77.09;99921.88;208839;1315;139566;-77
2022/02/08 01:14:15;;;;;;;8.20;2.00;;;;;;;2.68;77.26;99933.29;208562;1314;139736;-71
2022/02/08 01:19:21;;;;;;;13.40;4.50;;;;;;;2.66;77.18;99939.00;208425;1315;139716;-81
2022/02/08 01:24:24;;;;;;;14.90;3.50;;;;;;;2.63;76.93;99949.55;207771;1311;139527;-77
2022/02/08 01:50:45;;;;;;;17.20;4.00;;;;;;;2.43;77.09;99989.77;207762;1314;141536;-78
2022/02/08 01:55:50;;;;;;;10.10;2.60;;;;;;;2.38;76.79;99994.56;207663;1314;140461;-67
2022/02/08 02:01:03;;;;;;;8.70;3.70;;;;;;;2.29;77.10;99997.63;208330;1315;139041;-71
2022/02/08 02:06:06;;;;;;;20.00;4.90;;;;;;;2.24;77.38;100004.04;208280;1315;139090;-69
2022/02/08 02:11:09;;;;;;;11.20;3.90;;;;;;;2.23;77.17;100007.60;208534;1314;140094;-78
2022/02/08 02:16:31;;;;;;;14.40;3.70;;;;;;;2.22;77.41;100016.48;208036;1314;140430;-73
2022/02/08 02:21:35;;;;;;;8.30;2.40;;;;;;;2.15;77.43;100026.29;208030;1314;139299;-77
2022/02/08 02:26:37;;;;;;;15.80;3.40;;;;;;;2.10;77.58;100029.48;208567;1317;139113;-79
2022/02/08 02:31:42;;;;;;;13.60;7.70;;;;;;;2.11;77.33;100030.95;208411;1315;233359;-74
2022/02/08 02:36:50;;;;;;;15.70;4.70;;;;;;;2.10;77.51;100034.84;207928;1316;140623;-80
2022/02/08 02:41:54;;;;;;;16.30;4.40;;;;;;;2.10;77.72;100041.02;208099;1315;234126;-82
2022/02/08 02:46:56;;;;;;;12.30;3.00;;;;;;;2.13;77.67;100041.61;209041;1317;139867;-71
2022/02/08 02:51:58;;;;;;;14.50;4.70;;;;;;;2.16;77.77;100044.41;209208;1318;139923;-71
2022/02/08 02:57:03;;;;;;;10.20;3.10;;;;;;;2.15;77.58;100055.67;209028;1316;141466;-72
2022/02/08 03:02:26;;;;;;;17.60;6.00;;;;;;;2.13;77.75;100064.54;208493;1317;572882;-77
2022/02/08 03:23:24;;;;;;;16.30;3.50;;;;;;;2.17;77.99;100100.57;207772;1317;139824;-79
2022/02/08 03:28:36;;;;;;;9.20;2.90;;;;;;;2.15;78.11;100120.73;208039;1316;231771;-78
2022/02/08 03:33:45;;;;;;;15.10;4.60;;;;;;;2.10;77.88;100129.61;207227;1315;139558;-81
2022/02/08 03:39:07;;;;;;;9.30;4.70;;;;;;;2.12;77.98;100133.39;208131;1316;140280;-78
2022/02/08 03:44:16;;;;;;;6.80;2.30;;;;;;;2.13;78.06;100143.42;208155;1316;138917;-77
2022/02/08 03:49:18;;;;;;;7.90;3.00;;;;;;;2.09;77.71;100149.34;207559;1317;140063;-80
2022/02/08 03:54:24;;;;;;;10.90;3.20;;;;;;;2.02;77.89;100146.92;208178;1315;138916;-81
2022/02/08 03:59:30;;;;;;;15.50;3.70;;;;;;;2.02;77.96;100158.52;207283;1315;141263;-80
2022/02/08 04:10:09;;;;;;;17.80;5.00;;;;;;;2.02;77.98;100163.55;207682;1316;139114;-72
2022/02/08 04:43:03;;;;;;;16.40;3.40;;;;;;;1.85;78.01;100193.92;208795;1317;140625;-78
2022/02/08 04:47:32;;;;;;;18.30;3.90;;;;;;;1.82;78.21;100199.95;206979;1315;139698;-75
2022/02/08 04:52:36;;;;;;;16.10;3.40;;;;;;;1.85;78.31;100199.98;208254;1315;141047;-81
2022/02/08 04:57:47;;;;;;;12.30;3.70;;;;;;;1.91;78.28;100203.73;208973;1316;139252;-80
2022/02/08 05:56:09;;;;;;;19.30;3.20;;;;;;;1.65;78.42;100259.80;207723;1316;141555;-81
2022/02/08 06:01:12;;;;;;;5.50;2.70;;;;;;;1.72;78.21;100267.17;207478;1317;203279;-74
2022/02/08 06:06:22;;;;;;;19.00;3.30;;;;;;;1.73;78.47;100276.14;207534;1315;140547;-78
2022/02/08 06:11:35;;;;;;;10.50;3.60;;;;;;;1.72;78.79;100276.60;207387;1316;142181;-79
2022/02/08 06:16:38;;;;;;;10.20;1.90;;;;;;;1.74;78.68;100283.73;207358;1317;139018;-79
2022/02/08 06:21:53;;;;;;;11.00;2.50;;;;;;;1.79;78.30;100279.83;207014;1315;140525;-78
2022/02/08 06:26:56;;;;;;;15.80;3.80;;;;;;;1.82;78.50;100284.63;208593;1315;231006;-81
2022/02/08 06:31:59;;;;;;;8.50;3.50;;;;;;;1.83;78.15;100290.75;207711;1315;141758;-81
2022/02/08 06:37:08;;;;;;;8.50;4.20;;;;;;;1.88;78.42;100290.98;207388;1316;140255;-80
2022/02/08 06:42:11;;;;;;;18.00;3.30;;;;;;;1.92;78.53;100295.60;207866;1317;140842;-81
2022/02/08 06:47:16;;;;;;;20.40;5.70;;;;;;;1.93;78.09;100296.70;207256;1317;141864;-80
2022/02/08 06:52:21;;;;;;;12.90;3.20;;;;;;;1.98;78.38;100302.45;208549;1316;142756;-79
2022/02/08 06:57:28;;;;;;;13.50;2.90;;;;;;;2.00;78.53;100303.07;208021;1318;142100;-80
2022/02/08 07:02:30;;;;;;;14.40;2.80;;;;;;;2.01;78.20;100310.41;208364;1315;141278;-80
2022/02/08 07:07:32;;;;;;;9.90;2.90;;;;;;;2.07;78.33;100311.71;208429;1312;143587;-79
2022/02/08 07:12:35;;;;;;;6.90;2.70;;;;;;;2.11;78.58;100313.40;207774;1317;140758;-81
2022/02/08 07:17:37;;;;;;;19.00;3.10;;;;;;;2.13;77.95;100306.65;208645;1316;140272;-81
2022/02/08 07:22:41;;;;;;;11.40;4.00;;;;;;;2.13;78.29;100309.33;208976;1317;140419;-81
2022/02/08 07:27:46;;;;;;;14.70;3.10;;;;;;;2.16;78.31;100312.05;207086;1315;141627;-76
2022/02/08 07:32:52;;;;;;;15.20;4.50;;;;;;;2.18;77.93;100314.71;207734;1315;141619;-80
2022/02/08 07:43:22;;;;;;;12.30;3.30;;;;;;;2.24;77.95;100307.32;207802;1315;141350;-82
2022/02/08 07:48:27;;;;;;;17.00;4.60;;;;;;;2.27;78.61;100306.13;207943;1316;140239;-82
2022/02/08 07:53:30;;;;;;;11.90;5.30;;;;;;;2.33;78.08;100306.02;207356;1318;142115;-81
2022/02/08 07:58:42;;;;;;;15.10;5.20;;;;;;;2.38;78.38;100294.77;208033;1316;210859;-81
2022/02/08 08:03:50;;;;;;;21.40;5.10;;;;;;;2.40;78.63;100289.87;208241;1315;141476;-82
2022/02/08 08:08:54;;;;;;;12.50;4.90;;;;;;;2.49;78.47;100294.92;207865;1316;140709;-82
2022/02/08 08:24:08;;;;;;;11.40;4.40;;;;;;;3.07;78.27;100298.77;207531;1315;142649;-82
2022/02/08 08:29:11;;;;;;;13.90;5.60;;;;;;;3.06;78.11;100291.58;207650;1315;140858;-80
2022/02/08 08:34:20;;;;;;;11.70;4.60;;;;;;;3.13;78.23;100289.23;208142;1315;141760;-83
2022/02/08 08:39:28;;;;;;;16.60;6.90;;;;;;;3.40;77.96;100293.85;207524;1317;141251;-83
2022/02/08 08:44:54;;;;;;;17.30;6.10;;;;;;;3.66;77.98;100290.52;207507;1315;141439;-80
2022/02/08 08:55:21;;;;;;;13.00;7.40;;;;;;;4.08;77.32;100282.56;206957;1315;141565;-77
2022/02/08 09:00:26;;;;;;;12.10;4.30;;;;;;;4.16;77.14;100283.23;208025;1316;141389;-84
2022/02/08 09:05:32;;;;;;;12.20;5.20;;;;;;;4.16;76.91;100285.20;208841;1317;139393;-86
2022/02/08 09:10:48;;;;;;;13.00;3.70;;;;;;;4.18;76.68;100278.86;207679;1316;141571;-85
2022/02/08 09:21:35;;;;;;;13.50;5.90;;;;;;;4.27;76.55;100262.27;208936;1317;141200;-85
2022/02/08 09:32:00;;;;;;;9.70;5.20;;;;;;;4.41;76.57;100255.12;208832;1316;142257;-85
2022/02/08 09:37:03;;;;;;;8.70;3.80;;;;;;;4.52;76.40;100259.13;208309;1316;139150;-79
2022/02/08 09:42:14;;;;;;;14.90;4.60;;;;;;;4.56;76.49;100255.42;208390;1316;140891;-82
2022/02/08 09:47:20;;;;;;;16.30;4.80;;;;;;;4.56;76.38;100238.42;207632;1316;141420;-78
2022/02/08 09:52:23;;;;;;;17.30;5.10;;;;;;;4.56;76.26;100237.10;208176;1315;140032;-82
2022/02/08 09:57:25;;;;;;;15.30;5.10;;;;;;;4.64;76.29;100230.48;207317;1316;140266;-77
2022/02/08 10:02:27;;;;;;;11.10;4.90;;;;;;;4.76;76.17;100218.89;207259;1317;142100;-82
2022/02/08 10:07:34;;;;;;;13.90;5.30;;;;;;;4.81;76.09;100211.20;208155;1317;139769;-76
2022/02/08 10:13:16;;;;;;;12.00;7.50;;;;;;;4.77;75.80;100204.69;208259;1315;139423;-85
2022/02/08 10:23:53;;;;;;;6.40;4.20;;;;;;;4.83;76.03;100194.80;208124;1316;141363;-85
2022/02/08 10:29:00;;;;;;;10.30;5.20;;;;;;;4.96;75.75;100183.34;207641;1315;204260;-85
2022/02/08 10:39:31;;;;;;;16.50;4.60;;;;;;;5.06;75.48;100161.34;207880;1317;144330;-83
2022/02/08 10:44:45;;;;;;;;;;;;;;;;;;;;;
2022/02/08 10:49:48;;;;;;;26.70;5.60;;;;;;;5.18;75.08;100158.45;207879;1313;141509;-83
2022/02/08 10:54:51;;;;;;;18.90;5.70;;;;;;;5.16;75.12;100148.08;208219;1316;141048;-85
2022/02/08 10:59:59;;;;;;;9.00;4.60;;;;;;;5.13;74.76;100139.50;208188;1316;141162;-82
2022/02/08 11:11:04;;;;;;;19.10;5.60;;;;;;;5.13;74.63;100123.48;207343;1317;140992;-83
2022/02/08 11:16:24;;;;;;;10.40;2.90;;;;;;;5.11;74.42;100123.67;208470;1318;141663;-80
2022/02/08 11:22:02;;;;;;;11.30;4.30;;;;;;;5.14;73.99;100113.98;208671;1317;140697;-85
2022/02/08 11:27:18;;;;;;;6.40;2.60;;;;;;;5.12;74.13;100082.48;208155;1315;161727;-86
2022/02/08 11:32:49;;;;;;;15.90;2.90;;;;;;;5.08;73.97;100071.73;207311;1318;140360;-78
2022/02/08 11:43:52;;;;;;;4.80;2.60;;;;;;;5.41;74.00;100042.77;208730;1317;139854;-79
2022/02/08 11:54:54;;;;;;;12.30;3.10;;;;;;;5.33;73.85;100044.46;207289;1316;141684;-82
2022/02/08 12:00:18;;;;;;;12.30;4.20;;;;;;;5.18;74.00;100044.11;208225;1316;140274;-83
2022/02/08 12:05:37;;;;;;;7.40;3.00;;;;;;;4.89;74.06;100035.11;208720;1316;139626;-82
2022/02/08 12:10:48;;;;;;;11.50;3.70;;;;;;;4.62;74.66;100034.98;207133;1315;143220;-83
2022/02/08 14:05:24;;;;;;;10.70;4.50;;;;;;;4.14;79.22;99930.13;208200;1316;139351;-81
2022/02/08 14:15:30;;;;;;;14.80;6.60;;;;;;;4.14;79.52;99926.07;207526;1316;151245;-84
2022/02/08 15:09:03;;;;;;;12.70;6.20;;;;;;;4.06;81.88;99903.06;208597;1316;140542;-81
2022/02/08 15:14:07;;;;;;;12.50;8.30;;;;;;;4.10;82.34;99885.77;208651;1317;140189;-82
2022/02/08 15:19:10;;;;;;;9.50;7.20;;;;;;;4.13;82.36;99888.60;207668;1316;139322;-82
2022/02/08 15:24:14;;;;;;;9.10;6.80;;;;;;;4.19;82.57;99899.75;207944;1316;151889;-81
2022/02/08 15:29:21;;;;;;;13.80;7.30;;;;;;;4.24;82.69;99899.71;208164;1317;139426;-86
2022/02/08 15:34:24;;;;;;;11.70;8.20;;;;;;;4.23;82.77;99877.46;209162;1316;139618;-79
2022/02/08 15:39:27;;;;;;;7.50;6.80;;;;;;;4.28;82.86;99872.13;208406;1317;140298;-79
2022/02/08 15:44:38;;;;;;;5.90;4.90;;;;;;;4.33;83.09;99852.20;209413;1316;141744;-77
2022/02/08 15:49:56;;;;;;;8.70;6.40;;;;;;;4.36;83.16;99849.28;208414;1316;140285;-83
2022/02/08 15:55:13;;;;;;;8.20;7.40;;;;;;;4.40;83.19;99843.15;209104;1318;141619;-85
2022/02/08 16:05:57;;;;;;;8.10;7.20;;;;;;;4.42;83.59;99856.24;208113;1317;140485;-74
2022/02/08 16:11:31;;;;;;;6.00;5.60;;;;;;;4.50;83.50;99851.27;208679;1316;144200;-75
2022/02/08 16:16:49;;;;;;;;;;;;;;;4.54;83.71;99851.63;206924;1316;140754;-82
2022/02/08 16:28:24;;;;;;;6.70;5.70;;;;;;;4.52;84.02;99856.94;208046;1316;139735;-77
2022/02/08 16:55:30;;;;;;;10.10;5.80;;;;;;;4.54;84.98;99855.25;207247;1318;143088;-73
2022/02/08 16:59:57;;;;;;;5.60;5.10;;;;;;;4.58;84.79;99847.38;207419;1316;143352;-68
2022/02/08 17:05:01;;;;;;;5.60;5.10;;;;;;;4.59;84.93;99849.58;208367;1316;139510;-74
2022/02/08 17:10:08;;;;;;;10.80;6.00;;;;;;;4.61;85.01;99857.79;207289;1316;141048;-75
2022/02/08 17:47:32;;;;;;;7.80;7.00;;;;;;;4.92;85.46;99884.27;209363;1317;140887;-81
2022/02/08 17:52:37;;;;;;;7.80;6.30;;;;;;;4.97;85.68;99877.64;209229;1316;140881;-76
2022/02/08 17:57:49;;;;;;;6.30;5.60;;;;;;;5.01;85.74;99867.38;208522;1317;142121;-74
2022/02/08 18:02:51;;;;;;;8.80;7.10;;;;;;;5.06;85.67;99882.48;208794;1317;141205;-78
2022/02/08 18:07:54;;;;;;;10.70;8.40;;;;;;;5.10;86.21;99893.00;208438;1315;139831;-74
2022/02/08 18:12:59;;;;;;;9.30;7.30;;;;;;;5.17;85.93;99896.05;207129;1315;141055;-76
2022/02/08 18:18:07;;;;;;;9.00;8.20;;;;;;;5.21;86.02;99885.97;208257;1317;141702;-76
2022/02/08 18:28:27;;;;;;;11.20;9.10;;;;;;;5.26;86.43;99914.30;207845;1315;141808;-78
2022/02/08 19:21:43;;;;;;;14.10;10.30;;;;;;;5.51;86.86;99945.27;208214;1316;142535;-82
2022/02/08 19:26:50;;;;;;;10.20;6.60;;;;;;;5.51;86.93;99945.61;207965;1317;140143;-75
2022/02/08 19:31:54;;;;;;;9.90;8.90;;;;;;;5.51;86.86;99946.09;208132;1316;142534;-79
2022/02/08 19:37:04;;;;;;;8.70;7.30;;;;;;;5.52;87.21;99953.90;207937;1316;140995;-80
2022/02/08 19:42:11;;;;;;;11.90;9.70;;;;;;;5.53;87.02;99960.09;207174;1315;141466;-77
2022/02/08 19:47:15;;;;;;;12.40;8.70;;;;;;;5.54;87.13;99966.61;208320;1317;142736;-80
2022/02/08 19:52:21;;;;;;;11.10;9.30;;;;;;;5.56;87.16;99970.11;207490;1316;141404;-75
2022/02/08 19:57:26;;;;;;;11.20;10.10;;;;;;;5.57;87.13;99981.84;208444;1315;141678;-76
2022/02/08 20:02:29;;;;;;;10.30;6.40;;;;;;;5.59;87.13;99987.83;208781;1317;142543;-77
2022/02/08 20:07:33;;;;;;;8.70;7.80;;;;;;;5.59;87.36;99989.25;207440;1315;140690;-75
2022/02/08 20:12:36;;;;;;;9.80;8.80;;;;;;;5.60;87.23;99994.10;208302;1316;227567;-74
2022/02/08 20:17:43;;;;;;;7.50;6.70;;;;;;;5.65;87.22;100005.08;208015;1315;159946;-73
2022/02/08 20:22:53;;;;;;;8.00;7.00;;;;;;;5.68;87.36;100001.88;208129;1316;141699;-74
2022/02/08 20:28:11;;;;;;;11.20;7.50;;;;;;;5.70;87.00;100017.67;207981;1316;141293;-71
2022/02/08 20:33:15;;;;;;;9.00;7.80;;;;;;;5.73;87.24;100029.22;207531;1316;141680;-76
2022/02/08 20:38:18;;;;;;;6.90;6.20;;;;;;;5.74;87.27;100031.26;207819;1317;142522;-79
2022/02/08 20:43:21;;;;;;;7.60;6.80;;;;;;;5.72;87.49;100025.70;208079;1315;210500;-77
2022/02/08 20:48:26;;;;;;;7.30;6.60;;;;;;;5.72;87.44;100032.91;207889;1315;154449;-76
2022/02/08 20:53:38;;;;;;;9.80;6.10;;;;;;;5.73;87.55;100038.25;208085;1315;141365;-70
2022/02/08 20:58:54;;;;;;;7.50;6.30;;;;;;;5.74;87.40;100047.62;207639;1317;140308;-74
2022/02/08 21:04:08;;;;;;;6.00;5.30;;;;;;;5.78;87.43;100059.77;207647;1316;140702;-74
2022/02/08 21:09:14;;;;;;;5.50;4.80;;;;;;;5.76;87.20;100069.14;206957;1317;140923;-74
2022/02/08 21:14:19;;;;;;;8.40;5.80;;;;;;;5.74;87.51;100078.30;207391;1315;143301;-71
2022/02/08 21:19:28;;;;;;;5.00;4.50;;;;;;;5.75;87.50;100078.95;208156;1317;141440;-71
2022/02/08 21:24:51;;;;;;;8.10;5.20;;;;;;;5.75;87.30;100088.63;207362;1315;142899;-72
2022/02/08 21:51:50;;;;;;;;;;;;;;;5.64;86.57;100104.39;208654;1317;139928;-70
2022/02/08 21:56:56;;;;;;;5.80;4.40;;;;;;;5.57;86.72;100114.55;209083;1315;128682;-78
2022/02/08 22:01:58;;;;;;;4.00;3.50;;;;;;;5.55;86.62;100121.61;209173;1317;140947;-75
2022/02/08 22:07:05;;;;;;;7.70;4.50;;;;;;;5.53;86.35;100126.67;208549;1315;140159;-75
2022/02/08 22:22:52;;;;;;;6.20;4.50;;;;;;;5.45;86.10;100162.80;208883;1315;140345;-72
2022/02/08 22:28:18;;;;;;;10.50;6.80;;;;;;;5.39;86.38;100173.36;208219;1318;140902;-72
2022/02/08 22:33:26;;;;;;;7.80;4.70;;;;;;;5.40;86.55;100181.09;208023;1316;140088;-71
2022/02/08 22:38:37;;;;;;;10.60;6.00;;;;;;;5.38;86.31;100186.00;207573;1315;141838;-73
2022/02/08 22:43:51;;;;;;;8.80;5.80;;;;;;;5.35;86.29;100188.73;207055;1316;140380;-72
2022/02/08 22:48:54;;;;;;;11.90;5.00;;;;;;;5.30;85.93;100197.80;207896;1315;141519;-74
2022/02/08 22:53:56;;;;;;;7.20;4.70;;;;;;;5.23;85.97;100204.23;207308;1316;140052;-72
2022/02/08 22:58:59;;;;;;;8.10;5.00;;;;;;;5.16;85.91;100209.42;207392;1312;140015;-72
2022/02/08 23:04:02;;;;;;;7.80;4.40;;;;;;;5.10;86.12;100221.73;207376;1315;140103;-71
2022/02/08 23:09:13;;;;;;;7.60;4.70;;;;;;;5.02;85.97;100222.52;207758;1315;140205;-73
2022/02/08 23:14:20;;;;;;;8.80;4.40;;;;;;;4.96;85.94;100228.91;206978;1315;139866;-67
2022/02/08 23:40:59;;;;;;;8.80;4.50;;;;;;;4.61;85.72;100251.64;207874;1315;140440;-71
2022/02/08 23:46:02;;;;;;;5.60;4.00;;;;;;;4.55;85.78;100259.02;207796;1315;140326;-77
2022/02/08 23:51:17;;;;;;;8.00;4.30;;;;;;;4.53;85.79;100266.17;208403;1315;140092;-72
2022/02/08 23:56:46;;;;;;;5.30;4.50;;;;;;;4.51;85.73;100267.85;208459;1316;139639;-73
